createdAt,value
2023-02-24T00:03:35.430Z,10.81
2023-02-24T00:08:32.026Z,10.87
2023-02-24T00:13:31.452Z,10.94
2023-02-24T00:18:30.641Z,10.78
2023-02-24T00:23:27.355Z,10.92
2023-02-24T00:28:24.267Z,10.98
2023-02-24T00:33:23.943Z,10.85
2023-02-24T00:38:20.875Z,10.91
2023-02-24T00:43:18.132Z,10.94
2023-02-24T00:48:15.241Z,10.86
2023-02-24T00:53:13.030Z,10.98
2023-02-24T00:58:11.440Z,10.89
2023-02-24T01:03:09.272Z,10.91
2023-02-24T01:08:05.907Z,10.94
2023-02-24T01:13:03.120Z,10.63
2023-02-24T01:17:59.933Z,10.65
2023-02-24T01:22:57.297Z,10.65
2023-02-24T01:27:54.125Z,10.90
2023-02-24T01:32:52.905Z,11.10
2023-02-24T01:37:49.727Z,10.74
2023-02-24T01:42:48.780Z,10.43
2023-02-24T01:47:47.260Z,10.49
2023-02-24T01:52:46.967Z,10.49
2023-02-24T01:57:45.605Z,10.55
2023-02-24T02:02:45.935Z,10.65
2023-02-24T02:07:43.391Z,10.63
2023-02-24T02:12:44.911Z,10.54
2023-02-24T02:17:47.191Z,10.54
2023-02-24T02:23:06.979Z,10.57
2023-02-24T02:28:19.595Z,10.59
2023-02-24T02:33:33.488Z,10.73
2023-02-24T02:38:34.741Z,10.79
2023-02-24T02:43:34.679Z,10.57
2023-02-24T02:48:35.780Z,10.76
2023-02-24T02:53:36.951Z,10.79
2023-02-24T02:58:36.352Z,10.75
2023-02-24T03:03:34.558Z,10.66
2023-02-24T03:08:36.612Z,10.77
2023-02-24T03:13:36.946Z,10.84
2023-02-24T03:18:36.912Z,10.69
2023-02-24T03:23:36.731Z,10.72
2023-02-24T03:28:36.842Z,10.82
2023-02-24T03:33:36.781Z,10.84
2023-02-24T03:38:37.888Z,10.59
2023-02-24T03:43:37.769Z,10.37
2023-02-24T03:48:38.264Z,10.43
2023-02-24T03:53:41.752Z,10.50
2023-02-24T03:58:47.639Z,10.37
2023-02-24T04:03:49.342Z,10.35
2023-02-24T04:09:01.653Z,10.50
2023-02-24T04:14:05.806Z,10.15
2023-02-24T04:19:04.706Z,10.08
2023-02-24T04:24:10.888Z,10.09
2023-02-24T04:29:08.917Z,10.08
2023-02-24T04:34:09.549Z,10.31
2023-02-24T04:39:11.045Z,10.48
2023-02-24T04:44:08.231Z,10.59
2023-02-24T04:49:04.984Z,10.66
2023-02-24T04:54:03.324Z,10.69
2023-02-24T04:59:01.270Z,10.78
2023-02-24T05:04:05.376Z,10.81
2023-02-24T05:09:13.698Z,10.67
2023-02-24T05:14:14.014Z,10.55
2023-02-24T05:19:29.234Z,10.41
2023-02-24T05:24:28.889Z,10.64
2023-02-24T05:29:28.677Z,10.73
2023-02-24T05:34:27.220Z,10.63
2023-02-24T05:39:25.994Z,10.49
2023-02-24T05:44:25.548Z,10.33
2023-02-24T05:49:26.348Z,10.09
2023-02-24T05:54:25.707Z,9.66
2023-02-24T05:59:22.971Z,9.53
2023-02-24T06:04:38.641Z,9.56
2023-02-24T06:09:40.024Z,9.82
2023-02-24T06:14:37.114Z,9.63
2023-02-24T06:19:34.062Z,9.31
2023-02-24T06:24:32.109Z,9.21
2023-02-24T06:29:30.315Z,8.80
2023-02-24T06:34:27.218Z,8.78
2023-02-24T06:39:23.872Z,8.48
2023-02-24T06:44:23.766Z,8.49
2023-02-24T06:49:22.363Z,8.68
2023-02-24T06:54:28.984Z,8.72
2023-02-24T06:59:28.130Z,8.63
2023-02-24T07:04:29.855Z,8.54
2023-02-24T07:09:26.992Z,8.50
2023-02-24T07:14:25.023Z,8.60
2023-02-24T07:19:29.111Z,8.63
2023-02-24T07:24:33.240Z,8.59
2023-02-24T07:29:33.889Z,8.49
2023-02-24T07:34:31.436Z,8.39
2023-02-24T08:16:44.677Z,9.36
2023-02-24T08:22:35.648Z,9.15
2023-02-24T08:33:50.381Z,9.26
2023-02-24T09:15:01.461Z,9.59
2023-02-24T09:51:56.409Z,9.26
2023-02-24T09:57:39.722Z,9.17
2023-02-24T10:03:24.270Z,9.10
2023-02-24T10:20:39.576Z,9.32
2023-02-24T10:25:53.232Z,9.20
2023-02-24T10:31:03.553Z,8.99
2023-02-24T10:36:08.884Z,9.09
2023-02-24T10:41:09.212Z,9.41
2023-02-24T10:46:22.215Z,9.33
2023-02-24T10:51:32.125Z,9.53
2023-02-24T10:56:41.374Z,9.32
2023-02-24T11:01:54.266Z,9.86
2023-02-24T11:06:55.182Z,9.48
2023-02-24T11:12:11.605Z,9.06
2023-02-24T11:17:23.190Z,9.18
2023-02-24T11:22:25.289Z,9.29
2023-02-24T11:27:25.459Z,9.49
2023-02-24T11:32:31.046Z,9.50
2023-02-24T11:37:37.834Z,9.25
2023-02-24T11:42:38.060Z,9.28
2023-02-24T11:47:39.041Z,9.33
2023-02-24T11:52:41.073Z,9.03
2023-02-24T11:57:42.341Z,9.19
2023-02-24T12:09:03.266Z,9.59
2023-02-24T12:14:57.948Z,9.75
2023-02-24T12:26:19.583Z,10.09
2023-02-24T12:31:24.010Z,10.13
2023-02-24T12:36:45.873Z,9.98
2023-02-24T12:41:48.557Z,10.21
2023-02-24T12:46:50.936Z,10.11
2023-02-24T12:52:03.480Z,10.15
2023-02-24T12:57:10.028Z,10.30
2023-02-24T13:02:13.271Z,10.24
2023-02-24T13:07:26.166Z,10.52
2023-02-24T13:12:27.307Z,10.32
2023-02-24T13:17:26.421Z,10.61
2023-02-24T13:22:25.768Z,10.92
2023-02-24T13:27:26.918Z,10.68
2023-02-24T13:32:25.825Z,10.88
2023-02-24T13:37:30.295Z,10.86
2023-02-24T13:42:28.725Z,11.09
2023-02-24T13:47:56.552Z,11.10
2023-02-24T13:53:49.617Z,10.90
2023-02-24T13:59:35.970Z,11.00
2023-02-24T14:10:18.486Z,11.22
2023-02-24T14:15:20.641Z,11.03
2023-02-24T14:27:09.280Z,11.29
2023-02-24T14:38:31.699Z,11.21
2023-02-24T14:38:35.352Z,11.21
2023-02-24T14:43:40.055Z,11.39
2023-02-24T14:48:39.691Z,11.17
2023-02-24T14:53:38.260Z,11.24
2023-02-24T14:58:37.524Z,11.51
2023-02-24T15:03:36.669Z,11.78
2023-02-24T15:08:39.937Z,11.86
2023-02-24T15:13:39.672Z,11.84
2023-02-24T15:18:37.030Z,11.97
2023-02-24T15:23:34.811Z,12.06
2023-02-24T15:28:38.047Z,12.18
2023-02-24T15:33:37.451Z,12.18
2023-02-24T15:38:34.942Z,12.16
2023-02-24T15:43:34.769Z,12.14
2023-02-24T15:48:31.928Z,12.20
2023-02-24T15:53:29.321Z,12.28
2023-02-24T15:58:26.208Z,12.27
2023-02-24T16:03:22.926Z,12.31
2023-02-24T16:08:21.617Z,12.14
2023-02-24T16:13:22.892Z,12.32
2023-02-24T16:18:22.597Z,12.24
2023-02-24T16:23:19.761Z,12.22
2023-02-24T16:28:17.959Z,11.84
2023-02-24T16:33:16.416Z,11.58
2023-02-24T16:38:17.425Z,11.16
2023-02-24T16:43:16.671Z,11.16
2023-02-24T16:48:22.176Z,10.91
2023-02-24T16:53:20.652Z,11.08
2023-02-24T16:58:18.554Z,11.32
2023-02-24T17:03:41.234Z,11.23
2023-02-24T17:08:43.289Z,11.29
2023-02-24T17:13:48.454Z,11.33
2023-02-24T17:18:45.521Z,11.22
2023-02-24T17:23:46.126Z,11.28
2023-02-24T17:28:44.325Z,11.60
2023-02-24T17:33:41.577Z,11.68
2023-02-24T17:38:38.508Z,11.45
2023-02-24T17:43:35.866Z,11.56
2023-02-24T17:48:57.213Z,11.48
2023-02-24T17:53:54.186Z,11.57
2023-02-24T17:58:54.895Z,11.69
2023-02-24T18:04:09.889Z,11.83
2023-02-24T18:09:06.766Z,11.55
2023-02-24T18:14:04.341Z,11.08
2023-02-24T18:19:01.000Z,11.08
2023-02-24T18:23:57.584Z,10.90
2023-02-24T18:28:54.335Z,10.40
2023-02-24T18:33:51.974Z,9.96
2023-02-24T18:38:49.023Z,9.90
2023-02-24T18:43:47.965Z,9.83
2023-02-24T18:48:45.673Z,10.02
2023-02-24T18:53:43.249Z,10.03
2023-02-24T18:58:40.178Z,10.13
2023-02-24T19:03:36.924Z,10.39
2023-02-24T19:08:33.777Z,10.16
2023-02-24T19:13:31.040Z,9.74
2023-02-24T19:18:29.998Z,9.51
2023-02-24T19:23:26.740Z,9.45
2023-02-24T19:28:23.447Z,9.56
2023-02-24T19:33:21.088Z,9.49
2023-02-24T19:38:20.359Z,9.66
2023-02-24T19:43:17.092Z,10.18
2023-02-24T19:48:13.736Z,9.94
2023-02-24T19:53:11.350Z,9.58
2023-02-24T19:58:10.196Z,9.40
2023-02-24T20:03:10.263Z,9.34
2023-02-24T20:08:07.194Z,9.85
2023-02-24T20:13:05.003Z,9.95
2023-02-24T20:18:04.442Z,9.86
2023-02-24T20:23:01.401Z,10.02
2023-02-24T20:27:58.268Z,10.32
2023-02-24T20:32:56.068Z,10.55
2023-02-24T20:37:53.253Z,9.85
2023-02-24T20:42:50.064Z,9.07
2023-02-24T20:47:46.605Z,8.94
2023-02-24T20:52:43.910Z,8.70
2023-02-24T20:57:40.588Z,9.01
2023-02-24T21:02:40.146Z,9.21
2023-02-24T21:07:39.941Z,9.12
2023-02-24T21:12:37.478Z,8.59
2023-02-24T21:17:35.611Z,8.51
2023-02-24T21:22:32.896Z,8.72
2023-02-24T21:27:30.209Z,9.29
2023-02-24T21:32:28.213Z,9.29
2023-02-24T21:37:24.981Z,9.46
2023-02-24T21:42:22.115Z,9.68
2023-02-24T21:47:19.871Z,9.77
2023-02-24T21:52:17.282Z,9.91
2023-02-24T21:57:13.901Z,9.70
2023-02-24T22:02:11.789Z,9.84
2023-02-24T22:07:08.737Z,9.90
2023-02-24T22:12:06.839Z,9.87
2023-02-24T22:17:03.451Z,10.05
2023-02-24T22:22:03.395Z,10.07
2023-02-24T22:27:00.181Z,9.96
2023-02-24T22:31:58.758Z,9.95
2023-02-24T22:36:56.020Z,10.07
2023-02-24T22:41:52.563Z,10.23
2023-02-24T22:46:49.392Z,10.13
2023-02-24T22:51:46.697Z,10.36
2023-02-24T22:56:43.413Z,10.27
2023-02-24T23:01:43.106Z,10.23
2023-02-24T23:06:39.840Z,10.02
2023-02-24T23:11:38.257Z,9.82
2023-02-24T23:16:36.448Z,10.12
2023-02-24T23:21:34.296Z,9.94
2023-02-24T23:26:31.745Z,10.16
2023-02-24T23:31:29.415Z,10.29
2023-02-24T23:36:27.926Z,10.28
2023-02-24T23:41:25.021Z,10.12
2023-02-24T23:46:21.991Z,9.97
2023-02-24T23:51:19.892Z,9.78
2023-02-24T23:56:17.056Z,9.70
